createdAt,value
2023-01-19T00:00:02.041Z,987.24
2023-01-19T00:05:01.551Z,987.16
2023-01-19T00:10:01.829Z,987.16
2023-01-19T00:20:01.931Z,987.29
2023-01-19T00:25:01.915Z,987.34
2023-01-19T00:30:02.264Z,987.3
2023-01-19T00:35:01.632Z,987.33
2023-01-19T00:40:01.983Z,987.24
2023-01-19T00:45:02.256Z,987.35
2023-01-19T00:50:01.857Z,987.34
2023-01-19T00:55:01.729Z,987.34
2023-01-19T01:00:02.208Z,987.29
2023-01-19T01:05:01.376Z,987.32
2023-01-19T01:10:01.786Z,987.33
2023-01-19T01:15:01.766Z,987.31
2023-01-19T01:20:01.855Z,987.31
2023-01-19T01:25:01.508Z,987.33
2023-01-19T01:30:02.140Z,987.4
2023-01-19T01:35:01.409Z,987.33
2023-01-19T01:40:01.771Z,987.4
2023-01-19T01:45:01.804Z,987.43
2023-01-19T01:50:01.878Z,987.52
2023-01-19T01:55:02.173Z,987.53
2023-01-19T02:00:02.109Z,987.47
2023-01-19T02:05:01.987Z,987.52
2023-01-19T02:10:01.603Z,987.51
2023-01-19T02:15:01.914Z,987.56
2023-01-19T02:20:02.000Z,987.54
2023-01-19T02:25:01.415Z,987.54
2023-01-19T02:30:02.111Z,987.48
2023-01-19T02:35:01.283Z,987.52
2023-01-19T02:40:01.980Z,987.57
2023-01-19T02:45:01.712Z,987.63
2023-01-19T02:50:02.000Z,987.61
2023-01-19T02:55:01.484Z,987.69
2023-01-19T03:00:01.738Z,987.74
2023-01-19T03:05:03.460Z,987.7
2023-01-19T03:10:02.245Z,987.66
2023-01-19T03:15:02.202Z,987.68
2023-01-19T03:20:02.285Z,987.67
2023-01-19T03:25:01.980Z,987.63
2023-01-19T03:30:01.875Z,987.63
2023-01-19T03:35:01.680Z,987.52
2023-01-19T03:40:01.661Z,987.55
2023-01-19T03:45:02.061Z,987.52
2023-01-19T03:50:02.194Z,987.48
2023-01-19T03:55:01.789Z,987.49
2023-01-19T04:00:01.964Z,987.55
2023-01-19T04:05:02.099Z,987.59
2023-01-19T04:10:01.480Z,987.61
2023-01-19T04:15:02.145Z,987.53
2023-01-19T04:20:01.746Z,987.61
2023-01-19T04:25:02.087Z,987.63
2023-01-19T04:30:01.943Z,987.67
2023-01-19T04:35:01.676Z,987.75
2023-01-19T04:40:02.269Z,987.68
2023-01-19T04:45:02.052Z,987.66
2023-01-19T04:50:02.026Z,987.65
2023-01-19T04:55:02.146Z,987.6
2023-01-19T05:00:01.667Z,987.62
2023-01-19T05:05:02.286Z,987.58
2023-01-19T05:10:01.982Z,987.52
2023-01-19T05:15:01.620Z,987.61
2023-01-19T05:20:02.427Z,987.56
2023-01-19T05:25:02.184Z,987.49
2023-01-19T05:30:01.948Z,987.53
2023-01-19T05:35:01.879Z,987.57
2023-01-19T05:40:01.544Z,987.62
2023-01-19T05:45:01.932Z,987.61
2023-01-19T05:50:01.551Z,987.7
2023-01-19T05:55:01.617Z,987.74
2023-01-19T06:00:02.189Z,987.79
2023-01-19T06:05:02.261Z,987.8
2023-01-19T06:10:01.929Z,987.87
2023-01-19T06:15:02.278Z,987.9
2023-01-19T06:20:01.595Z,987.97
2023-01-19T06:25:02.222Z,987.96
2023-01-19T06:30:02.085Z,987.93
2023-01-19T06:35:02.257Z,987.94
2023-01-19T06:40:01.509Z,987.99
2023-01-19T06:45:02.116Z,988.1
2023-01-19T06:50:02.059Z,988.13
2023-01-19T06:55:02.158Z,988.26
2023-01-19T07:00:01.705Z,988.29
2023-01-19T07:05:01.472Z,988.29
2023-01-19T07:10:01.543Z,988.34
2023-01-19T07:15:01.385Z,988.47
2023-01-19T07:20:01.635Z,988.44
2023-01-19T07:25:02.158Z,988.48
2023-01-19T07:30:01.969Z,988.58
2023-01-19T07:35:01.501Z,988.62
2023-01-19T07:40:02.172Z,988.71
2023-01-19T07:45:01.742Z,988.71
2023-01-19T07:50:02.227Z,988.8
2023-01-19T07:55:01.637Z,988.85
2023-01-19T08:00:02.312Z,988.92
2023-01-19T08:05:01.916Z,989
2023-01-19T08:10:01.769Z,989.05
2023-01-19T08:15:02.066Z,989.1
2023-01-19T08:20:01.581Z,989.08
2023-01-19T08:25:01.709Z,989.07
2023-01-19T08:30:01.527Z,989.12
2023-01-19T08:35:01.594Z,989.09
2023-01-19T08:40:01.616Z,989.17
2023-01-19T08:45:02.224Z,989.2
2023-01-19T08:50:01.994Z,989.3
2023-01-19T08:55:01.569Z,989.34
2023-01-19T09:00:01.412Z,989.42
2023-01-19T09:05:01.391Z,989.32
2023-01-19T09:10:02.137Z,989.46
2023-01-19T09:15:02.155Z,989.49
2023-01-19T09:20:01.521Z,989.49
2023-01-19T09:25:01.391Z,989.65
2023-01-19T09:30:01.527Z,989.64
2023-01-19T09:35:02.013Z,989.76
2023-01-19T09:40:02.108Z,989.79
2023-01-19T09:45:01.907Z,989.81
2023-01-19T09:50:01.514Z,989.82
2023-01-19T09:55:01.570Z,989.81
2023-01-19T10:00:02.212Z,989.89
2023-01-19T10:05:01.848Z,989.93
2023-01-19T10:10:01.876Z,989.8
2023-01-19T10:15:02.822Z,989.9
2023-01-19T10:20:02.076Z,989.92
2023-01-19T10:25:01.782Z,990.02
2023-01-19T10:30:01.756Z,990.09
2023-01-19T10:35:02.284Z,990.07
2023-01-19T10:40:01.732Z,990.08
2023-01-19T10:45:02.040Z,990.05
2023-01-19T10:50:01.931Z,990.05
2023-01-19T10:55:01.725Z,990.07
2023-01-19T11:00:02.508Z,990.08
2023-01-19T11:05:02.098Z,990.08
2023-01-19T11:10:01.919Z,990.17
2023-01-19T11:15:02.209Z,990.15
2023-01-19T11:20:02.075Z,990.14
2023-01-19T11:25:02.373Z,990.14
2023-01-19T11:30:02.058Z,990.17
2023-01-19T11:35:01.611Z,990.22
2023-01-19T11:40:02.013Z,990.13
2023-01-19T11:45:02.404Z,990.13
2023-01-19T11:50:01.820Z,990.1
2023-01-19T11:55:01.999Z,990.19
2023-01-19T12:00:02.463Z,990.16
2023-01-19T12:05:02.046Z,990.21
2023-01-19T12:10:01.815Z,990.25
2023-01-19T12:15:01.998Z,990.26
2023-01-19T12:20:02.175Z,990.23
2023-01-19T12:25:01.720Z,990.19
2023-01-19T12:30:01.871Z,990.19
2023-01-19T12:35:02.291Z,990.24
2023-01-19T12:40:01.578Z,990.2
2023-01-19T12:45:01.471Z,990.19
2023-01-19T12:50:02.190Z,990.16
2023-01-19T12:55:01.838Z,990.16
2023-01-19T13:00:01.436Z,990.16
2023-01-19T13:05:02.208Z,990.22
2023-01-19T13:10:02.027Z,990.32
2023-01-19T13:15:01.711Z,990.36
2023-01-19T13:20:01.595Z,990.35
2023-01-19T13:25:02.510Z,990.33
2023-01-19T13:30:02.183Z,990.34
2023-01-19T13:35:02.562Z,990.38
2023-01-19T13:40:01.928Z,990.39
2023-01-19T13:45:01.912Z,990.39
2023-01-19T13:50:01.674Z,990.36
2023-01-19T13:55:03.648Z,990.39
2023-01-19T14:00:01.859Z,990.39
2023-01-19T14:05:01.603Z,990.48
2023-01-19T14:10:01.432Z,990.47
2023-01-19T14:15:01.954Z,990.47
2023-01-19T14:20:01.557Z,990.58
2023-01-19T14:25:01.920Z,990.6
2023-01-19T14:30:02.226Z,990.67
2023-01-19T14:35:01.472Z,990.71
2023-01-19T14:40:01.991Z,990.7
2023-01-19T14:45:01.776Z,990.67
2023-01-19T14:50:02.144Z,990.75
2023-01-19T14:55:02.231Z,990.71
2023-01-19T15:00:01.376Z,990.76
2023-01-19T15:05:01.993Z,990.78
2023-01-19T15:10:01.611Z,990.8
2023-01-19T15:15:02.142Z,990.8
2023-01-19T15:20:01.507Z,990.82
2023-01-19T15:25:01.969Z,990.9
2023-01-19T15:30:01.554Z,990.93
2023-01-19T15:35:02.248Z,990.93
2023-01-19T15:40:01.609Z,990.98
2023-01-19T15:45:02.024Z,990.98
2023-01-19T15:50:01.782Z,991.05
2023-01-19T15:55:01.866Z,991.02
2023-01-19T16:00:01.732Z,991.09
2023-01-19T16:05:02.215Z,991.15
2023-01-19T16:10:02.071Z,991.22
2023-01-19T16:15:02.135Z,991.26
2023-01-19T16:20:01.725Z,991.28
2023-01-19T16:25:02.061Z,991.3
2023-01-19T16:30:02.145Z,991.32
2023-01-19T16:35:01.517Z,991.35
2023-01-19T16:40:02.026Z,991.37
2023-01-19T16:45:01.459Z,991.44
2023-01-19T16:50:01.993Z,991.46
2023-01-19T16:55:02.215Z,991.62
2023-01-19T17:00:01.663Z,991.67
2023-01-19T17:05:02.104Z,991.65
2023-01-19T17:10:01.659Z,991.64
2023-01-19T17:15:01.509Z,991.74
2023-01-19T17:20:02.207Z,991.74
2023-01-19T17:25:01.540Z,991.74
2023-01-19T17:30:02.193Z,991.79
2023-01-19T17:35:01.815Z,991.92
2023-01-19T17:40:01.660Z,991.97
2023-01-19T17:45:02.199Z,991.99
2023-01-19T17:50:01.676Z,992.05
2023-01-19T17:55:02.217Z,992.06
2023-01-19T18:00:01.475Z,992.12
2023-01-19T18:05:02.013Z,992.09
2023-01-19T18:10:01.434Z,992.05
2023-01-19T18:15:02.043Z,992.1
2023-01-19T18:20:01.688Z,992.13
2023-01-19T18:25:02.107Z,992.15
2023-01-19T18:30:01.408Z,992.1
2023-01-19T18:35:02.063Z,992.12
2023-01-19T18:40:01.421Z,992.12
2023-01-19T18:45:01.406Z,992.15
2023-01-19T18:50:01.817Z,992.12
2023-01-19T18:55:02.127Z,992.11
2023-01-19T19:00:01.667Z,992.08
2023-01-19T19:05:02.051Z,992.1
2023-01-19T19:10:01.662Z,992.17
2023-01-19T19:15:01.987Z,992.22
2023-01-19T19:20:01.818Z,992.24
2023-01-19T19:25:01.403Z,992.25
2023-01-19T19:30:01.836Z,992.22
2023-01-19T19:35:01.990Z,992.29
2023-01-19T19:40:02.121Z,992.35
2023-01-19T19:45:01.468Z,992.4
2023-01-19T19:50:02.215Z,992.5
2023-01-19T19:55:01.618Z,992.54
2023-01-19T20:00:02.174Z,992.62
2023-01-19T20:05:02.014Z,992.65
2023-01-19T20:10:01.493Z,992.6
2023-01-19T20:15:01.933Z,992.68
2023-01-19T20:20:02.331Z,992.71
2023-01-19T20:25:01.586Z,992.75
2023-01-19T20:30:02.099Z,992.79
2023-01-19T20:35:01.869Z,992.86
2023-01-19T20:40:02.057Z,992.86
2023-01-19T20:45:02.111Z,992.9
2023-01-19T20:50:01.530Z,992.9
2023-01-19T20:55:01.867Z,992.99
2023-01-19T21:00:02.110Z,992.95
2023-01-19T21:05:01.463Z,993.01
2023-01-19T21:10:02.187Z,993.06
2023-01-19T21:15:01.531Z,993.15
2023-01-19T21:20:02.002Z,993.22
2023-01-19T21:25:02.256Z,993.34
2023-01-19T21:30:01.527Z,993.39
2023-01-19T21:35:02.092Z,993.46
2023-01-19T21:40:01.982Z,993.57
2023-01-19T21:45:01.575Z,993.64
2023-01-19T21:50:01.894Z,993.59
2023-01-19T21:55:02.039Z,993.6
2023-01-19T22:00:01.441Z,993.63
2023-01-19T22:05:02.249Z,993.62
2023-01-19T22:10:01.600Z,993.72
2023-01-19T22:15:01.791Z,993.77
2023-01-19T22:20:02.241Z,993.84
2023-01-19T22:25:01.778Z,993.89
2023-01-19T22:30:02.240Z,993.9
2023-01-19T22:35:01.707Z,993.97
2023-01-19T22:40:01.849Z,994
2023-01-19T22:45:02.021Z,994.04
2023-01-19T22:50:02.230Z,994.07
2023-01-19T22:55:01.385Z,994.11
2023-01-19T23:00:02.410Z,994.23
2023-01-19T23:05:01.543Z,994.26
2023-01-19T23:10:01.341Z,994.31
2023-01-19T23:15:01.777Z,994.31
2023-01-19T23:20:01.475Z,994.38
2023-01-19T23:25:02.128Z,994.32
2023-01-19T23:30:02.249Z,994.31
2023-01-19T23:35:01.424Z,994.41
2023-01-19T23:40:01.702Z,994.42
2023-01-19T23:45:02.216Z,994.41
2023-01-19T23:50:01.445Z,994.38
2023-01-19T23:55:01.867Z,994.42
